Time;durP1;ratioP1;P1;durP2;ratioP2;P2;SDS_P1;SDS_P2;PMS_P1;PMS_P2;Temp;Humidity;BMP_temperature;BMP_pressure;BME280_temperature;BME280_humidity;BME280_pressure;Samples;Min_cycle;Max_cycle;Signal;HPM_P1;HPM_P2
2022/06/12 00:01:59;;;;;;;6.12;4.28;;;;;;;18.52;70.63;99548.59;4332760;33;31829;-86
2022/06/12 00:04:27;;;;;;;5.97;4.28;;;;;;;19.04;69.05;99550.94;4345801;33;33432;-78
2022/06/12 00:06:55;;;;;;;5.60;4.47;;;;;;;19.37;68.73;99545.09;4333963;33;35014;-78
2022/06/12 00:09:23;;;;;;;5.35;4.07;;;;;;;19.09;69.80;99548.91;4345367;33;34451;-79
2022/06/12 00:11:51;;;;;;;8.00;4.53;;;;;;;18.55;73.08;99542.34;4332627;33;34357;-81
2022/06/12 00:14:19;;;;;;;6.60;4.60;;;;;;;18.28;73.08;99545.19;4334584;33;33980;-82
2022/06/12 00:16:47;;;;;;;5.43;4.15;;;;;;;19.29;69.01;99539.31;4333860;33;35015;-83
2022/06/12 00:19:15;;;;;;;5.82;4.00;;;;;;;19.12;69.43;99537.38;4333934;33;34561;-78
2022/06/12 00:21:43;;;;;;;6.37;4.93;;;;;;;19.23;68.70;99539.56;4333888;33;33569;-81
2022/06/12 00:24:14;;;;;;;6.82;4.62;;;;;;;18.95;69.31;99532.81;4333396;33;33998;-79
2022/06/12 00:26:44;;;;;;;6.43;4.75;;;;;;;18.91;70.27;99529.44;4332437;33;35158;-79
2022/06/12 00:29:39;;;;;;;5.95;4.40;;;;;;;18.72;70.15;99524.06;4333333;33;34526;-82
2022/06/12 00:32:13;;;;;;;7.65;4.78;;;;;;;19.38;67.37;99524.84;4326735;33;156697;-80
2022/06/12 00:34:49;;;;;;;5.80;4.60;;;;;;;18.66;69.37;99529.59;4332613;33;34057;-79
2022/06/12 00:37:20;;;;;;;8.35;4.45;;;;;;;18.52;70.09;99521.37;4320003;33;35065;-81
2022/06/12 00:39:51;;;;;;;6.62;4.57;;;;;;;18.40;69.91;99522.72;4334393;33;34433;-78
2022/06/12 00:42:25;;;;;;;6.05;4.32;;;;;;;18.49;69.60;99529.41;4332834;33;33586;-79
2022/06/12 00:44:55;;;;;;;6.22;4.40;;;;;;;19.05;68.01;99525.38;4333158;33;34562;-80
2022/06/12 00:47:24;;;;;;;6.37;4.60;;;;;;;17.85;72.49;99525.69;4332673;33;35213;-78
2022/06/12 00:50:01;;;;;;;7.90;4.65;;;;;;;18.77;68.14;99524.72;4332064;33;34510;-82
2022/06/12 00:52:56;;;;;;;8.90;4.82;;;;;;;18.61;68.82;99525.44;4320466;33;33576;-79
2022/06/12 00:55:44;;;;;;;6.10;4.32;;;;;;;18.67;67.25;99526.03;4331055;33;34788;-79
2022/06/12 00:58:17;;;;;;;6.43;4.15;;;;;;;18.23;69.39;99520.78;4330576;33;35467;-78
2022/06/12 01:00:47;;;;;;;6.70;4.82;;;;;;;18.24;68.73;99522.47;4318728;33;35262;-78
2022/06/12 01:03:17;;;;;;;6.32;4.90;;;;;;;18.28;68.55;99521.44;4333187;33;33021;-79
2022/06/12 01:08:31;;;;;;;;;;;;;;;18.84;66.00;99521.87;4329053;33;35003;-79
2022/06/12 01:11:04;;;;;;;5.87;4.30;;;;;;;19.38;63.86;99515.13;4331782;33;34844;-78
2022/06/12 01:13:42;;;;;;;4.35;3.55;;;;;;;18.92;65.06;99514.50;4333128;33;34338;-79
2022/06/12 01:16:16;;;;;;;8.95;4.28;;;;;;;19.03;65.12;99506.97;4344012;32;33914;-79
2022/06/12 01:18:48;;;;;;;6.15;4.28;;;;;;;18.67;67.48;99507.56;4345089;33;35885;-81
2022/06/12 01:21:42;;;;;;;6.75;3.95;;;;;;;18.55;68.22;99513.34;4332066;33;35285;-78
2022/06/12 01:24:46;;;;;;;6.25;3.78;;;;;;;18.23;69.73;99510.22;4333023;33;33536;-82
2022/06/12 01:27:32;;;;;;;5.82;4.03;;;;;;;18.36;69.31;99513.22;4333211;33;33990;-87
2022/06/12 01:30:02;;;;;;;6.87;5.12;;;;;;;19.37;66.47;99510.78;4333012;33;35042;-81
2022/06/12 01:32:40;;;;;;;6.20;4.40;;;;;;;19.13;66.70;99510.09;4332081;33;35114;-78
2022/06/12 01:35:38;;;;;;;6.32;4.05;;;;;;;18.89;67.28;99499.63;4344275;32;34260;-79
2022/06/12 01:38:21;;;;;;;5.43;4.30;;;;;;;18.54;70.49;99503.72;4332193;33;33954;-79
2022/06/12 01:41:47;;;;;;;6.80;4.07;;;;;;;19.13;65.76;99500.38;4331746;33;36024;-82
2022/06/12 01:44:32;;;;;;;8.10;4.20;;;;;;;18.88;66.93;99507.63;4273845;33;34477;-78
2022/06/12 01:47:29;;;;;;;5.55;3.95;;;;;;;18.87;67.56;99505.91;4279634;33;33995;-80
2022/06/12 01:50:11;;;;;;;10.88;4.12;;;;;;;19.52;65.58;99506.59;4340930;33;33807;-80
2022/06/12 01:52:46;;;;;;;12.50;4.40;;;;;;;19.04;65.95;99513.97;4332837;33;35129;-79
2022/06/12 01:55:25;;;;;;;9.48;4.47;;;;;;;19.05;66.26;99509.53;4332208;33;34478;-79
2022/06/12 01:58:12;;;;;;;9.02;4.43;;;;;;;18.98;66.06;99508.94;4333432;33;33668;-84
2022/06/12 02:00:46;;;;;;;9.00;4.05;;;;;;;18.64;68.47;99509.47;4333332;33;34639;-78
2022/06/12 02:03:28;;;;;;;8.50;3.67;;;;;;;19.02;67.05;99499.13;4332730;33;36025;-82
2022/06/12 02:06:05;;;;;;;7.05;3.72;;;;;;;19.24;65.62;99509.62;4344577;33;35199;-79
2022/06/12 02:08:44;;;;;;;8.60;4.00;;;;;;;19.46;65.35;99497.16;4332444;33;34334;-78
2022/06/12 02:14:43;;;;;;;5.62;3.20;;;;;;;19.92;62.99;99496.88;4328155;33;35087;-79
2022/06/12 02:17:16;;;;;;;4.87;3.45;;;;;;;19.49;63.01;99494.38;4327931;33;34985;-79
2022/06/12 02:19:46;;;;;;;5.82;3.50;;;;;;;19.74;65.57;99503.88;4332598;33;33482;-79
2022/06/12 02:22:20;;;;;;;5.70;3.17;;;;;;;19.63;64.92;99491.13;4331710;33;33130;-79
2022/06/12 02:24:57;;;;;;;5.87;3.50;;;;;;;19.35;65.83;99506.50;4331983;33;35019;-79
2022/06/12 02:27:58;;;;;;;4.40;3.20;;;;;;;19.75;62.27;99504.72;4331619;33;34644;-78
2022/06/12 02:30:39;;;;;;;4.57;3.35;;;;;;;19.49;61.97;99494.38;4322187;33;32928;-85
2022/06/12 02:33:21;;;;;;;7.75;3.50;;;;;;;19.22;62.72;99499.13;4343644;32;33460;-79
2022/06/12 02:35:58;;;;;;;4.78;3.28;;;;;;;19.58;61.36;99503.69;4319668;33;35911;-79
2022/06/12 02:38:47;;;;;;;4.53;3.03;;;;;;;19.58;62.74;99498.41;4331570;33;35134;-79
2022/06/12 02:41:24;;;;;;;4.40;2.97;;;;;;;19.23;62.95;99505.25;4333005;33;33432;-79
2022/06/12 02:43:55;;;;;;;8.52;3.75;;;;;;;19.40;62.13;99505.37;4329698;33;33874;-79
2022/06/12 02:46:32;;;;;;;5.10;3.55;;;;;;;19.60;61.46;99503.59;4329962;33;35807;-78
2022/06/12 02:48:59;;;;;;;;;;;;;;;19.65;61.50;99504.25;4318784;33;34635;-80
2022/06/12 02:51:37;;;;;;;5.10;3.37;;;;;;;19.41;62.36;99509.72;4318984;33;34332;-77
2022/06/12 02:54:32;;;;;;;5.45;3.28;;;;;;;18.54;64.32;99512.47;4341387;33;34862;-83
2022/06/12 02:57:14;;;;;;;4.75;3.33;;;;;;;18.92;64.05;99514.50;4331296;33;35138;-75
2022/06/12 02:59:51;;;;;;;5.00;3.58;;;;;;;18.68;64.79;99516.34;4332038;33;34611;-76
2022/06/12 03:02:32;;;;;;;4.57;3.42;;;;;;;18.81;64.73;99514.88;4341031;32;33575;-74
2022/06/12 03:05:09;;;;;;;5.30;3.65;;;;;;;18.68;63.98;99517.19;4331797;33;34611;-76
2022/06/12 03:07:39;;;;;;;4.78;3.45;;;;;;;18.04;67.11;99518.00;4332401;33;35292;-74
2022/06/12 03:10:12;;;;;;;6.75;3.90;;;;;;;18.40;65.51;99519.22;4343352;33;35755;-75
2022/06/12 03:12:40;;;;;;;7.90;3.50;;;;;;;18.38;65.39;99520.16;4342351;32;33423;-75
2022/06/12 03:15:28;;;;;;;4.97;3.58;;;;;;;18.06;66.84;99517.94;4333587;33;33976;-74
2022/06/12 03:17:58;;;;;;;7.28;3.53;;;;;;;18.52;64.93;99521.37;4333081;33;35021;-75
2022/06/12 03:20:33;;;;;;;5.70;3.65;;;;;;;17.56;69.43;99527.66;4345678;33;34057;-75
2022/06/12 03:23:15;;;;;;;5.30;3.65;;;;;;;18.01;67.22;99526.00;4333205;33;33690;-75
2022/06/12 03:25:50;;;;;;;8.07;3.40;;;;;;;17.80;68.01;99528.50;4345002;32;33435;-78
2022/06/12 03:28:24;;;;;;;5.55;3.53;;;;;;;17.98;67.48;99526.13;4333905;33;35888;-76
2022/06/12 03:31:07;;;;;;;4.80;3.58;;;;;;;18.48;65.73;99525.06;4332626;33;34478;-75
2022/06/12 03:34:00;;;;;;;9.52;3.72;;;;;;;17.95;69.05;99526.25;4334060;33;33471;-78
2022/06/12 03:37:05;;;;;;;7.72;3.92;;;;;;;18.28;67.05;99526.72;4334369;33;35356;-80
2022/06/12 03:39:42;;;;;;;4.10;3.05;;;;;;;18.73;65.65;99533.69;4331007;33;35733;-77
2022/06/12 03:42:18;;;;;;;4.95;3.50;;;;;;;18.78;65.36;99530.88;4333705;33;34474;-80
2022/06/12 03:44:55;;;;;;;4.82;3.50;;;;;;;18.93;65.05;99532.03;4332606;33;33674;-80
2022/06/12 03:47:29;;;;;;;4.70;3.37;;;;;;;18.92;64.49;99532.97;4334158;33;34004;-79
2022/06/12 03:50:04;;;;;;;4.62;3.25;;;;;;;18.89;65.31;99535.72;4333334;33;35897;-76
2022/06/12 03:53:05;;;;;;;5.15;3.37;;;;;;;18.98;65.77;99534.47;4329383;33;34360;-80
2022/06/12 03:58:32;;;;;;;6.43;3.75;;;;;;;18.93;66.82;99538.16;4342909;33;34064;-82
2022/06/12 04:01:01;;;;;;;7.80;3.87;;;;;;;18.52;70.07;99531.94;4332497;33;35896;-77
2022/06/12 04:03:40;;;;;;;4.90;3.80;;;;;;;18.71;68.67;99538.16;4332527;33;34428;-75
2022/06/12 04:06:15;;;;;;;4.65;3.40;;;;;;;19.29;67.03;99539.31;4333286;33;33122;-74
2022/06/12 04:09:00;;;;;;;6.75;3.55;;;;;;;19.84;64.30;99536.87;4320095;33;34055;-75
2022/06/12 04:11:29;;;;;;;5.53;3.55;;;;;;;20.24;61.54;99542.97;4330597;33;35033;-75
2022/06/12 04:13:59;;;;;;;6.35;3.25;;;;;;;20.64;58.93;99546.34;4344210;32;35315;-74
2022/06/12 04:16:34;;;;;;;5.87;3.30;;;;;;;20.37;60.05;99537.09;4345388;33;32976;-75
2022/06/12 04:19:05;;;;;;;3.90;2.95;;;;;;;20.88;57.26;99539.91;4320809;33;34896;-75
2022/06/12 04:21:54;;;;;;;4.82;2.83;;;;;;;20.69;57.51;99545.28;4333154;33;35213;-74
2022/06/12 04:24:27;;;;;;;4.68;3.05;;;;;;;21.12;56.49;99543.97;4334064;33;35240;-75
2022/06/12 04:26:56;;;;;;;4.97;3.03;;;;;;;21.21;54.91;99538.22;4332366;33;33417;-75
2022/06/12 04:29:34;;;;;;;5.05;2.90;;;;;;;21.40;54.19;99542.53;4332663;33;33905;-75
2022/06/12 04:32:04;;;;;;;6.00;2.70;;;;;;;21.93;53.23;99546.81;4332825;33;35776;-75
2022/06/12 04:34:35;;;;;;;3.35;2.50;;;;;;;21.74;52.25;99541.66;4332239;33;34500;-75
2022/06/12 04:37:11;;;;;;;6.82;2.80;;;;;;;22.17;52.83;99550.87;4344867;33;33744;-75
2022/06/12 04:39:39;;;;;;;4.95;2.42;;;;;;;22.25;52.47;99556.59;4333275;33;33908;-75
2022/06/12 04:42:08;;;;;;;4.62;2.80;;;;;;;22.56;51.27;99552.25;4332493;33;34997;-78
2022/06/12 04:44:36;;;;;;;3.78;2.62;;;;;;;22.27;53.02;99552.06;4334144;33;35290;-82
2022/06/12 04:47:05;;;;;;;4.40;2.90;;;;;;;22.53;50.99;99550.63;4333798;33;34377;-76
2022/06/12 04:49:35;;;;;;;3.78;2.75;;;;;;;22.63;51.12;99556.28;4332642;33;34881;-76
2022/06/12 04:52:06;;;;;;;5.45;3.08;;;;;;;22.84;50.08;99554.19;4332769;33;35968;-76
2022/06/12 04:54:35;;;;;;;4.10;2.72;;;;;;;22.93;50.80;99558.09;4334192;33;33785;-75
2022/06/12 04:57:04;;;;;;;5.03;2.95;;;;;;;22.85;50.13;99554.09;4333040;33;34210;-75
2022/06/12 04:59:33;;;;;;;4.97;3.20;;;;;;;22.84;50.74;99555.03;4333909;33;33881;-75
2022/06/12 05:02:02;;;;;;;7.40;2.95;;;;;;;22.26;53.83;99559.16;4333200;33;35899;-75
2022/06/12 05:04:31;;;;;;;5.55;2.83;;;;;;;22.79;52.00;99550.94;4333756;33;34658;-75
2022/06/12 05:06:59;;;;;;;5.60;2.67;;;;;;;23.12;52.05;99556.09;4332977;33;34181;-75
2022/06/12 05:09:30;;;;;;;4.68;3.12;;;;;;;23.00;52.29;99554.13;4334018;33;34377;-75
2022/06/12 05:11:59;;;;;;;5.55;3.17;;;;;;;23.56;50.28;99547.25;4332860;33;35080;-76
2022/06/12 05:14:27;;;;;;;5.22;2.80;;;;;;;23.72;49.61;99552.47;4332752;33;34469;-75
2022/06/12 05:17:04;;;;;;;4.10;2.60;;;;;;;24.01;48.41;99553.34;4333582;33;34273;-75
2022/06/12 05:19:36;;;;;;;6.25;2.60;;;;;;;24.21;47.75;99546.75;4333328;33;34055;-75
2022/06/12 05:22:04;;;;;;;5.20;2.65;;;;;;;24.21;48.84;99553.88;4331914;33;35190;-75
2022/06/12 05:24:34;;;;;;;4.53;2.78;;;;;;;24.28;47.99;99554.34;4344614;33;34353;-76
2022/06/12 05:27:05;;;;;;;4.35;2.70;;;;;;;23.79;49.70;99560.91;4331892;33;33719;-75
2022/06/12 05:29:36;;;;;;;3.58;2.45;;;;;;;24.34;47.33;99560.13;4332583;33;33316;-76
2022/06/12 05:32:04;;;;;;;4.22;2.65;;;;;;;23.76;49.43;99563.78;4333405;33;35169;-75
2022/06/12 05:34:33;;;;;;;4.45;2.50;;;;;;;24.18;47.74;99570.91;4342340;33;34520;-75
2022/06/12 05:37:02;;;;;;;4.60;3.30;;;;;;;23.48;49.02;99570.78;4324897;33;33356;-75
2022/06/12 05:39:30;;;;;;;4.28;2.85;;;;;;;24.36;47.99;99579.50;4319012;33;33868;-75
2022/06/12 05:41:58;;;;;;;4.35;2.78;;;;;;;24.56;47.38;99574.75;4336153;33;35108;-78
2022/06/12 05:44:27;;;;;;;3.75;2.75;;;;;;;24.53;47.78;99577.56;4331468;33;32914;-83
2022/06/12 05:46:58;;;;;;;3.55;2.50;;;;;;;24.55;47.34;99567.72;4337580;32;32884;-76
2022/06/12 05:49:27;;;;;;;4.30;2.92;;;;;;;23.99;47.84;99571.19;4338260;32;31786;-83
2022/06/12 05:51:55;;;;;;;3.97;2.60;;;;;;;25.07;45.81;99574.91;4333305;33;35078;-81
2022/06/12 05:54:23;;;;;;;5.00;2.65;;;;;;;25.19;45.09;99575.06;4332018;33;34420;-77
2022/06/12 05:56:52;;;;;;;4.95;2.85;;;;;;;24.64;46.64;99585.75;4331927;33;31991;-80
2022/06/12 05:59:23;;;;;;;4.53;2.55;;;;;;;25.09;46.03;99578.31;4327053;33;33931;-85
2022/06/12 06:01:51;;;;;;;5.45;3.12;;;;;;;25.11;46.01;99583.53;4337891;33;35277;-79
2022/06/12 06:04:18;;;;;;;3.78;2.40;;;;;;;24.49;48.49;99582.22;4332310;33;34555;-79
2022/06/12 06:06:51;;;;;;;6.35;3.05;;;;;;;25.06;44.97;99585.66;4333062;33;34141;-77
2022/06/12 06:09:19;;;;;;;4.82;2.72;;;;;;;25.41;44.83;99591.31;4331420;33;33635;-77
2022/06/12 06:11:47;;;;;;;3.60;2.55;;;;;;;25.14;45.91;99597.50;4332284;33;35749;-79
2022/06/12 06:14:15;;;;;;;3.28;2.65;;;;;;;25.16;46.05;99595.59;4331825;33;35168;-78
2022/06/12 06:16:44;;;;;;;4.93;3.03;;;;;;;25.49;44.43;99596.97;4320185;33;32824;-77
2022/06/12 06:19:13;;;;;;;3.90;2.33;;;;;;;25.85;45.62;99592.69;4331479;33;34047;-83
2022/06/12 06:21:41;;;;;;;4.12;3.22;;;;;;;25.74;45.10;99597.94;4332182;33;35983;-78
2022/06/12 06:24:10;;;;;;;5.00;2.83;;;;;;;25.74;43.63;99596.13;4342848;32;33709;-77
2022/06/12 06:26:39;;;;;;;4.90;2.90;;;;;;;25.36;46.65;99590.78;4332932;33;33518;-78
2022/06/12 06:29:07;;;;;;;4.25;3.17;;;;;;;25.81;43.82;99591.22;4331778;33;33886;-77
2022/06/12 06:31:35;;;;;;;4.00;2.40;;;;;;;26.48;42.32;99596.25;4333201;33;35694;-79
2022/06/12 06:34:03;;;;;;;4.32;2.87;;;;;;;26.98;41.53;99595.31;4333107;33;34230;-77
2022/06/12 06:36:32;;;;;;;4.57;3.03;;;;;;;26.81;42.68;99592.09;4332204;33;33342;-78
2022/06/12 06:39:00;;;;;;;6.75;2.70;;;;;;;26.62;43.39;99602.44;4331612;33;34147;-78
2022/06/12 06:41:28;;;;;;;4.12;2.75;;;;;;;27.14;42.66;99598.56;4331217;33;35758;-78
2022/06/12 06:46:43;;;;;;;5.43;2.58;;;;;;;27.09;41.63;99589.16;4333214;33;33530;-78
2022/06/12 06:49:19;;;;;;;2.95;2.40;;;;;;;26.71;43.26;99599.09;4332764;33;35071;-78
2022/06/12 06:51:47;;;;;;;6.53;2.75;;;;;;;27.43;40.34;99593.69;4334748;33;35034;-80
2022/06/12 06:54:15;;;;;;;3.95;2.70;;;;;;;27.29;40.20;99593.88;4334410;33;34574;-78
2022/06/12 06:56:43;;;;;;;4.28;2.90;;;;;;;27.86;39.54;99594.00;4332721;33;32932;-77
2022/06/12 06:59:11;;;;;;;5.97;3.00;;;;;;;28.39;38.17;99591.53;4332706;33;34912;-79
2022/06/12 07:01:39;;;;;;;5.30;2.85;;;;;;;28.20;38.57;99591.34;4334413;33;35980;-78
2022/06/12 07:04:07;;;;;;;4.82;2.92;;;;;;;28.23;39.47;99602.66;4334396;33;34561;-79
2022/06/12 07:06:35;;;;;;;4.25;2.70;;;;;;;27.79;40.67;99593.62;4333084;33;34457;-78
2022/06/12 07:09:03;;;;;;;3.80;2.78;;;;;;;28.48;40.68;99595.31;4334224;33;34837;-77
2022/06/12 07:11:32;;;;;;;4.75;2.60;;;;;;;28.29;40.41;99591.47;4333389;33;34902;-78
2022/06/12 07:14:00;;;;;;;6.47;3.00;;;;;;;28.55;39.88;99596.53;4333174;33;33991;-78
2022/06/12 07:16:30;;;;;;;4.78;2.45;;;;;;;28.35;39.17;99595.47;4345363;33;33436;-78
2022/06/12 07:18:58;;;;;;;3.95;2.67;;;;;;;28.23;39.14;99602.66;4334225;33;34078;-77
2022/06/12 07:21:27;;;;;;;5.85;3.47;;;;;;;28.33;39.36;99594.75;4334706;33;35039;-78
2022/06/12 07:23:55;;;;;;;4.03;3.08;;;;;;;28.25;41.18;99594.50;4334152;33;35396;-78
2022/06/12 07:26:27;;;;;;;4.07;2.70;;;;;;;28.63;39.01;99591.41;4333336;33;33508;-78
2022/06/12 07:28:55;;;;;;;6.50;2.60;;;;;;;28.17;40.50;99592.44;4333137;33;34755;-78
2022/06/12 07:31:24;;;;;;;5.18;2.40;;;;;;;28.26;39.12;99593.53;4332751;33;35071;-78
2022/06/12 07:33:53;;;;;;;3.35;2.60;;;;;;;28.04;40.69;99586.34;4332882;33;34624;-77
2022/06/12 07:36:24;;;;;;;4.00;2.70;;;;;;;28.94;38.81;99586.19;4335020;33;34269;-78
2022/06/12 07:38:52;;;;;;;7.22;3.87;;;;;;;28.86;39.71;99584.16;4332853;33;34636;-77
2022/06/12 07:41:41;;;;;;;4.22;2.70;;;;;;;28.43;40.82;99586.78;4333488;33;35907;-77
2022/06/12 07:44:10;;;;;;;3.55;2.67;;;;;;;28.76;39.10;99588.56;4332603;33;32410;-77
2022/06/12 07:46:38;;;;;;;4.53;2.40;;;;;;;29.14;37.35;99587.19;4331792;33;34221;-79
2022/06/12 07:49:06;;;;;;;4.45;2.72;;;;;;;30.03;37.97;99584.94;4334531;33;33974;-78
2022/06/12 07:51:34;;;;;;;3.30;2.50;;;;;;;30.32;37.76;99583.31;4334640;33;35057;-78
2022/06/12 07:54:02;;;;;;;3.83;2.67;;;;;;;30.23;37.73;99588.56;4334147;33;35254;-79
2022/06/12 07:56:31;;;;;;;2.85;2.50;;;;;;;30.66;36.74;99583.03;4332557;33;34553;-78
2022/06/12 07:58:58;;;;;;;4.07;2.60;;;;;;;29.91;36.38;99588.69;4334013;33;34028;-78
2022/06/12 08:01:27;;;;;;;5.25;2.72;;;;;;;30.27;38.30;99586.44;4333429;33;34957;-78
2022/06/12 08:03:56;;;;;;;4.00;3.08;;;;;;;30.60;34.79;99589.78;4332670;33;34543;-78
2022/06/12 08:06:25;;;;;;;4.30;2.95;;;;;;;29.90;37.11;99589.69;4332675;33;33409;-78
2022/06/12 08:08:53;;;;;;;4.10;2.58;;;;;;;29.76;34.88;99584.69;4333666;33;34059;-78
2022/06/12 08:11:26;;;;;;;5.57;2.58;;;;;;;29.63;37.04;99587.53;4334426;33;34727;-78
2022/06/12 08:13:54;;;;;;;3.75;2.67;;;;;;;28.98;38.08;99581.41;4333831;33;34471;-78
2022/06/12 08:16:23;;;;;;;3.80;2.58;;;;;;;29.65;36.68;99583.75;4334194;33;33240;-78
2022/06/12 08:18:51;;;;;;;3.47;2.67;;;;;;;29.71;34.70;99586.91;4332555;33;34756;-78
2022/06/12 08:21:19;;;;;;;4.80;2.62;;;;;;;29.64;39.40;99574.00;4334325;33;36015;-78
2022/06/12 08:23:50;;;;;;;4.10;3.67;;;;;;;30.23;33.68;99571.56;4333035;33;34618;-79
2022/06/12 08:26:31;;;;;;;5.25;3.35;;;;;;;30.12;36.59;99575.22;4320493;33;34085;-78
2022/06/12 08:29:03;;;;;;;6.05;2.80;;;;;;;29.89;36.06;99573.72;4344707;32;33951;-78
2022/06/12 08:31:44;;;;;;;3.53;2.70;;;;;;;30.25;36.30;99566.94;4333916;33;35174;-78
2022/06/12 08:34:24;;;;;;;5.78;2.30;;;;;;;30.01;38.56;99570.81;4333596;33;34417;-78
2022/06/12 08:36:56;;;;;;;3.85;2.33;;;;;;;30.03;35.95;99568.81;4333218;33;34166;-78
2022/06/12 08:39:24;;;;;;;3.22;2.35;;;;;;;29.59;38.89;99565.47;4333830;33;34016;-78
2022/06/12 08:42:11;;;;;;;4.60;2.97;;;;;;;30.38;34.50;99567.56;4308796;33;33567;-78
2022/06/12 08:44:50;;;;;;;4.18;2.72;;;;;;;30.91;34.78;99570.88;4333024;33;34472;-78
2022/06/12 08:47:29;;;;;;;4.35;2.55;;;;;;;30.33;37.23;99569.75;4345218;33;33670;-77
2022/06/12 08:50:11;;;;;;;3.80;2.50;;;;;;;30.30;37.76;99570.03;4331341;33;34596;-77
2022/06/12 08:56:12;;;;;;;3.33;2.55;;;;;;;29.48;38.27;99570.94;4595611;27;20117;-80
2022/06/12 08:58:52;;;;;;;3.60;2.30;;;;;;;30.34;36.47;99571.50;4347668;33;33314;-81
2022/06/12 09:01:20;;;;;;;6.78;2.47;;;;;;;30.29;35.95;99575.56;4347763;33;33950;-82
2022/06/12 09:03:53;;;;;;;5.97;2.78;;;;;;;31.15;34.39;99565.94;4345909;32;34615;-88
2022/06/12 09:07:03;;;;;;;3.80;2.25;;;;;;;31.54;34.08;99568.56;4347780;33;35239;-82
2022/06/12 09:09:37;;;;;;;2.95;2.05;;;;;;;31.62;35.17;99567.00;4343205;33;33465;-84
2022/06/12 09:12:13;;;;;;;3.42;2.67;;;;;;;31.83;37.11;99573.00;4346479;33;33248;-86
2022/06/12 09:14:59;;;;;;;6.97;3.00;;;;;;;32.12;34.69;99567.53;4346590;33;35417;-82
2022/06/12 09:17:50;;;;;;;3.87;2.30;;;;;;;31.73;34.04;99566.81;4351221;32;34376;-84
2022/06/12 09:20:38;;;;;;;3.85;2.83;;;;;;;31.32;33.91;99563.50;4354834;32;34249;-84
2022/06/12 09:23:32;;;;;;;4.37;2.50;;;;;;;30.82;36.49;99559.13;4359522;32;34399;-84
2022/06/12 09:26:18;;;;;;;6.60;3.03;;;;;;;31.29;33.60;99570.03;4353785;32;34939;-83
2022/06/12 09:28:58;;;;;;;5.35;3.08;;;;;;;32.44;35.17;99562.69;4360178;32;32214;-86
2022/06/12 09:31:33;;;;;;;4.20;2.42;;;;;;;31.46;34.91;99568.41;4361289;32;33480;-82
2022/06/12 09:34:06;;;;;;;6.57;2.87;;;;;;;31.92;33.61;99557.81;4362281;32;34025;-82
2022/06/12 09:36:51;;;;;;;3.25;2.60;;;;;;;31.28;33.67;99562.94;4333846;32;35046;-83
2022/06/12 09:39:49;;;;;;;3.75;2.42;;;;;;;30.85;35.95;99563.34;4361223;32;33154;-82
2022/06/12 09:42:22;;;;;;;5.10;3.10;;;;;;;31.15;34.16;99560.56;4361312;32;34184;-83
2022/06/12 09:44:54;;;;;;;4.37;2.55;;;;;;;31.52;34.55;99553.56;4363598;32;34620;-83
2022/06/12 09:48:08;;;;;;;6.03;2.87;;;;;;;32.34;35.49;99545.72;4358432;32;35705;-83
2022/06/12 09:50:49;;;;;;;3.37;2.35;;;;;;;32.86;32.69;99545.91;4329004;33;33626;-83
2022/06/12 09:53:25;;;;;;;4.40;2.72;;;;;;;32.09;31.34;99542.75;4352743;32;34342;-83
2022/06/12 09:56:10;;;;;;;4.45;2.75;;;;;;;32.05;33.35;99538.63;4347284;33;34625;-83
2022/06/12 09:58:56;;;;;;;3.83;2.72;;;;;;;31.74;36.00;99528.97;4356364;32;34952;-82
2022/06/12 10:01:27;;;;;;;5.43;2.87;;;;;;;31.62;34.86;99532.00;4362320;32;34440;-82
2022/06/12 10:04:19;;;;;;;3.40;2.67;;;;;;;31.45;33.67;99526.38;4361026;32;33447;-83
2022/06/12 10:07:01;;;;;;;5.37;2.80;;;;;;;31.17;35.14;99528.97;4348932;32;34259;-82
2022/06/12 10:09:40;;;;;;;3.97;2.80;;;;;;;31.38;34.66;99526.09;4361786;32;35102;-82
2022/06/12 10:12:16;;;;;;;5.15;3.17;;;;;;;31.72;33.19;99524.75;4359084;32;34362;-83
2022/06/12 10:14:48;;;;;;;7.53;3.12;;;;;;;31.56;34.83;99520.81;4338013;32;32997;-82
2022/06/12 10:17:24;;;;;;;4.75;2.72;;;;;;;31.43;35.83;99522.09;4360672;32;34039;-82
2022/06/12 10:20:01;;;;;;;4.12;2.78;;;;;;;32.15;33.38;99519.72;4360703;32;35782;-83
2022/06/12 10:22:37;;;;;;;3.70;2.72;;;;;;;32.38;32.90;99525.53;4360718;32;34350;-83
2022/06/12 10:25:08;;;;;;;4.65;2.65;;;;;;;30.88;35.72;99520.06;4360782;32;33590;-83
2022/06/12 10:27:59;;;;;;;3.72;2.62;;;;;;;31.20;35.89;99519.75;4336339;32;34019;-83
2022/06/12 10:30:33;;;;;;;3.60;2.80;;;;;;;32.49;32.63;99509.12;4360114;32;35008;-83
2022/06/12 10:33:18;;;;;;;3.87;2.87;;;;;;;31.42;35.28;99505.13;4361836;32;35422;-82
2022/06/12 10:35:49;;;;;;;3.87;2.65;;;;;;;32.58;32.58;99510.94;4363160;32;33650;-83
2022/06/12 10:38:19;;;;;;;4.00;2.72;;;;;;;32.51;33.86;99507.16;4341733;33;32371;-83
2022/06/12 10:40:51;;;;;;;3.55;2.67;;;;;;;32.57;31.70;99503.81;4348444;32;33848;-83
2022/06/12 10:43:28;;;;;;;5.22;2.80;;;;;;;32.53;33.98;99502.44;4361866;32;34564;-82
2022/06/12 10:46:17;;;;;;;3.60;2.83;;;;;;;32.01;35.03;99502.19;4361604;32;33473;-83
2022/06/12 10:49:04;;;;;;;4.28;2.70;;;;;;;32.10;34.12;99506.69;4361845;32;33951;-83
2022/06/12 10:51:40;;;;;;;6.80;3.08;;;;;;;32.34;35.18;99506.13;4349459;32;34914;-82
2022/06/12 10:54:15;;;;;;;4.12;2.78;;;;;;;32.21;32.38;99493.03;4333988;33;33071;-82
2022/06/12 10:56:55;;;;;;;;;;;;;;;31.15;35.88;99489.78;4358487;32;33035;-82
2022/06/12 10:59:26;;;;;;;3.67;2.60;;;;;;;32.12;34.45;99497.50;4358359;32;34107;-82
2022/06/12 11:02:06;;;;;;;4.65;2.80;;;;;;;33.05;29.94;99497.16;4354402;32;35008;-83
2022/06/12 11:04:44;;;;;;;4.05;2.60;;;;;;;32.49;33.16;99491.13;4360279;32;33246;-83
2022/06/12 11:07:30;;;;;;;4.00;2.67;;;;;;;31.27;34.76;99490.44;4360265;32;34355;-84
2022/06/12 11:10:53;;;;;;;4.72;2.85;;;;;;;31.97;32.76;99484.66;4331857;33;33816;-83
2022/06/12 11:13:49;;;;;;;4.20;2.87;;;;;;;31.68;32.38;99488.31;4314931;33;34847;-83
2022/06/12 11:16:33;;;;;;;7.43;2.70;;;;;;;31.91;33.95;99478.88;4292024;33;34428;-83
2022/06/12 11:19:17;;;;;;;4.62;2.35;;;;;;;31.84;33.54;99483.16;4325656;33;33466;-83
2022/06/12 11:21:58;;;;;;;6.10;2.80;;;;;;;32.16;33.15;99483.72;4349476;32;34196;-82
2022/06/12 11:24:35;;;;;;;4.10;2.72;;;;;;;32.02;33.96;99488.56;4347027;33;36022;-83
2022/06/12 11:27:09;;;;;;;5.10;2.95;;;;;;;32.00;33.55;99485.19;4347193;32;35145;-82
2022/06/12 11:30:04;;;;;;;3.90;2.97;;;;;;;32.24;34.02;99489.19;4359946;32;33518;-83
2022/06/12 11:32:42;;;;;;;4.00;2.90;;;;;;;31.88;36.32;99487.25;4352696;32;33958;-82
2022/06/12 11:35:13;;;;;;;9.23;3.00;;;;;;;31.87;35.38;99480.19;4361647;32;35960;-83
2022/06/12 11:37:53;;;;;;;3.67;2.75;;;;;;;31.12;35.18;99477.44;4361649;32;34437;-83
2022/06/12 11:40:26;;;;;;;3.87;2.95;;;;;;;31.29;34.76;99488.44;4364369;32;33443;-83
2022/06/12 11:43:12;;;;;;;4.12;3.10;;;;;;;31.27;36.22;99476.97;4362388;32;33839;-83
2022/06/12 11:46:03;;;;;;;4.65;3.05;;;;;;;32.27;33.51;99480.78;4343808;32;35786;-83
2022/06/12 11:49:08;;;;;;;3.55;2.83;;;;;;;31.94;33.66;99477.69;4334716;33;34462;-83
2022/06/12 11:52:00;;;;;;;3.75;2.72;;;;;;;30.95;37.31;99478.19;4339730;32;34180;-83
2022/06/12 11:54:49;;;;;;;4.95;3.03;;;;;;;31.46;34.61;99471.53;4363063;32;33963;-83
2022/06/12 11:57:45;;;;;;;4.37;3.03;;;;;;;31.75;36.16;99470.59;4362900;32;34916;-82
2022/06/12 12:00:14;;;;;;;5.03;2.85;;;;;;;31.62;32.11;99464.69;4361360;32;34788;-83
2022/06/12 12:02:50;;;;;;;4.57;3.00;;;;;;;31.49;33.81;99462.34;4349120;33;32860;-83
2022/06/12 12:05:45;;;;;;;8.30;3.00;;;;;;;31.11;37.69;99464.12;4349295;33;34621;-83
2022/06/12 12:08:16;;;;;;;4.35;2.78;;;;;;;31.87;30.34;99458.63;4361328;32;35062;-82
2022/06/12 12:10:59;;;;;;;7.62;3.33;;;;;;;31.69;36.56;99446.94;4364139;32;34424;-82
2022/06/12 12:13:31;;;;;;;5.18;3.47;;;;;;;32.23;34.43;99447.09;4361755;32;33256;-83
2022/06/12 12:16:04;;;;;;;5.00;3.15;;;;;;;31.72;38.58;99443.97;4362904;32;33937;-82
2022/06/12 12:18:49;;;;;;;3.53;2.60;;;;;;;32.11;34.54;99446.44;4361327;32;33967;-82
2022/06/12 12:21:28;;;;;;;5.77;2.87;;;;;;;31.59;34.30;99438.06;4361615;32;34455;-83
2022/06/12 12:23:57;;;;;;;3.65;3.00;;;;;;;31.67;33.52;99435.50;4363145;32;33629;-83
2022/06/12 12:26:31;;;;;;;4.65;2.72;;;;;;;31.94;34.18;99438.16;4361467;32;34704;-84
2022/06/12 12:29:02;;;;;;;3.80;2.90;;;;;;;30.41;34.51;99435.63;4363030;32;34792;-83
2022/06/12 12:31:31;;;;;;;4.32;3.05;;;;;;;31.65;33.58;99424.03;4362609;32;35203;-83